createdAt,value
2019-01-12T00:01:12.110Z,54.53
2019-01-12T00:03:39.496Z,49.67
2019-01-12T00:06:06.573Z,46.02
2019-01-12T00:08:34.511Z,36.40
2019-01-12T00:11:01.967Z,46.73
2019-01-12T00:13:29.454Z,46.10
2019-01-12T00:15:56.787Z,37.13
2019-01-12T00:18:24.185Z,29.63
2019-01-12T00:20:52.001Z,51.30
2019-01-12T00:23:19.669Z,46.25
2019-01-12T00:25:46.851Z,42.10
2019-01-12T00:28:13.907Z,43.33
2019-01-12T00:30:42.753Z,34.95
2019-01-12T00:33:10.241Z,39.63
2019-01-12T00:35:37.296Z,37.60
2019-01-12T00:38:04.338Z,39.42
2019-01-12T00:40:31.398Z,32.83
2019-01-12T00:42:58.445Z,27.60
2019-01-12T00:45:26.587Z,50.33
2019-01-12T00:47:53.733Z,31.87
2019-01-12T00:50:20.778Z,35.67
2019-01-12T00:52:48.948Z,42.60
2019-01-12T00:55:16.351Z,39.03
2019-01-12T00:57:43.693Z,31.55
2019-01-12T01:00:14.635Z,41.47
2019-01-12T01:02:41.975Z,40.70
2019-01-12T01:05:09.130Z,36.80
2019-01-12T01:07:36.280Z,38.53
2019-01-12T01:10:05.205Z,32.20
2019-01-12T01:12:32.283Z,28.80
2019-01-12T01:14:59.427Z,39.97
2019-01-12T01:17:26.504Z,41.40
2019-01-12T01:19:54.842Z,38.63
2019-01-12T01:22:22.011Z,36.05
2019-01-12T01:24:49.359Z,43.35
2019-01-12T01:27:17.221Z,36.50
2019-01-12T01:29:45.048Z,44.25
2019-01-12T01:32:12.954Z,34.38
2019-01-12T01:34:40.731Z,49.00
2019-01-12T01:37:08.490Z,32.50
2019-01-12T01:39:35.586Z,30.85
2019-01-12T01:42:02.766Z,27.97
2019-01-12T01:44:29.860Z,42.33
2019-01-12T01:46:57.280Z,25.40
2019-01-12T01:49:24.376Z,29.15
2019-01-12T01:51:51.719Z,44.05
2019-01-12T01:54:18.791Z,37.97
2019-01-12T01:56:45.854Z,37.80
2019-01-12T01:59:13.280Z,32.90
2019-01-12T02:01:41.003Z,33.80
2019-01-12T02:04:08.767Z,35.03
2019-01-12T02:06:35.928Z,30.27
2019-01-12T02:09:05.939Z,33.67
2019-01-12T02:11:33.497Z,30.83
2019-01-12T02:14:01.051Z,35.27
2019-01-12T02:16:32.145Z,25.67
2019-01-12T02:18:59.594Z,33.50
2019-01-12T02:21:26.702Z,40.27
2019-01-12T02:23:53.876Z,23.93
2019-01-12T02:26:21.305Z,27.93
2019-01-12T02:28:48.788Z,18.47
2019-01-12T02:31:16.626Z,28.10
2019-01-12T02:33:45.107Z,26.13
2019-01-12T02:36:12.365Z,35.17
2019-01-12T02:38:39.538Z,27.17
2019-01-12T02:41:08.532Z,24.73
2019-01-12T02:43:35.631Z,28.70
2019-01-12T02:46:02.698Z,27.30
2019-01-12T02:48:29.886Z,22.30
2019-01-12T02:50:57.052Z,19.00
2019-01-12T02:53:24.182Z,44.23
2019-01-12T02:55:51.237Z,22.80
2019-01-12T02:58:20.126Z,31.27
2019-01-12T03:00:47.611Z,30.27
2019-01-12T03:03:14.706Z,17.43
2019-01-12T03:05:41.763Z,21.25
2019-01-12T03:08:09.120Z,33.07
2019-01-12T03:10:36.178Z,26.23
2019-01-12T03:13:03.598Z,29.10
2019-01-12T03:15:30.956Z,29.10
2019-01-12T03:17:58.406Z,29.87
2019-01-12T03:20:27.500Z,22.33
2019-01-12T03:22:54.961Z,35.20
2019-01-12T03:25:22.080Z,26.83
2019-01-12T03:27:49.144Z,24.05
2019-01-12T03:30:17.956Z,17.92
2019-01-12T03:32:45.931Z,29.93
2019-01-12T03:35:16.453Z,19.52
2019-01-12T03:37:43.801Z,21.63
2019-01-12T03:40:17.025Z,33.60
2019-01-12T03:42:44.695Z,27.70
2019-01-12T03:45:14.057Z,22.30
2019-01-12T03:47:41.518Z,23.83
2019-01-12T03:50:09.771Z,16.03
2019-01-12T03:52:37.550Z,29.07
2019-01-12T03:55:04.666Z,24.93
2019-01-12T03:57:31.766Z,33.93
2019-01-12T03:59:58.857Z,32.23
2019-01-12T04:02:25.991Z,26.27
2019-01-12T04:04:53.433Z,32.27
2019-01-12T04:07:21.738Z,24.83
2019-01-12T04:09:49.990Z,23.93
2019-01-12T04:12:17.125Z,16.67
2019-01-12T04:14:45.982Z,28.33
2019-01-12T04:17:13.089Z,32.90
2019-01-12T04:19:40.152Z,22.80
2019-01-12T04:22:07.216Z,30.95
2019-01-12T04:24:38.339Z,26.48
2019-01-12T04:27:05.417Z,22.95
2019-01-12T04:29:32.868Z,26.23
2019-01-12T04:31:59.944Z,29.03
2019-01-12T04:34:28.140Z,19.50
2019-01-12T04:36:55.623Z,24.90
2019-01-12T04:39:24.084Z,23.95
2019-01-12T04:41:53.546Z,25.00
2019-01-12T04:44:21.006Z,26.45
2019-01-12T04:46:49.729Z,9.83
2019-01-12T04:49:18.990Z,26.27
2019-01-12T04:51:46.149Z,18.85
2019-01-12T04:54:13.270Z,19.87
2019-01-12T04:56:40.644Z,11.38
2019-01-12T04:59:08.768Z,12.07
2019-01-12T05:01:36.683Z,9.80
2019-01-12T05:04:04.244Z,9.65
2019-01-12T05:06:32.676Z,9.35
2019-01-12T05:08:59.738Z,20.27
2019-01-12T05:11:27.734Z,7.92
2019-01-12T05:13:54.829Z,14.63
2019-01-12T05:16:22.036Z,15.43
2019-01-12T05:18:49.737Z,7.92
2019-01-12T05:21:16.857Z,7.20
2019-01-12T05:23:44.891Z,8.25
2019-01-12T05:26:12.283Z,7.95
2019-01-12T05:28:40.410Z,6.03
2019-01-12T05:31:07.808Z,9.75
2019-01-12T05:33:35.531Z,4.55
2019-01-12T05:36:03.845Z,3.72
2019-01-12T05:38:30.925Z,5.08
2019-01-12T05:40:59.056Z,7.90
2019-01-12T05:43:27.143Z,8.18
2019-01-12T05:45:54.608Z,7.25
2019-01-12T05:48:23.791Z,22.58
2019-01-12T05:50:50.868Z,6.97
2019-01-12T05:53:17.958Z,2.58
2019-01-12T05:55:45.148Z,7.12
2019-01-12T05:58:12.571Z,7.97
2019-01-12T06:00:39.667Z,11.22
2019-01-12T06:03:07.508Z,8.65
2019-01-12T06:05:35.577Z,4.05
2019-01-12T06:08:02.749Z,9.00
2019-01-12T06:10:31.619Z,3.42
2019-01-12T06:12:58.698Z,5.40
2019-01-12T06:15:27.248Z,11.80
2019-01-12T06:17:55.441Z,11.83
2019-01-12T06:20:22.892Z,5.65
2019-01-12T06:22:50.334Z,5.22
2019-01-12T06:25:18.867Z,8.45
2019-01-12T06:27:45.914Z,6.42
2019-01-12T06:30:15.823Z,7.92
2019-01-12T06:32:42.957Z,8.53
2019-01-12T06:35:10.484Z,7.37
2019-01-12T06:37:39.989Z,7.83
2019-01-12T06:40:11.279Z,10.53
2019-01-12T06:42:38.371Z,20.10
2019-01-12T06:45:07.169Z,8.70
2019-01-12T06:47:34.778Z,9.78
2019-01-12T06:50:02.192Z,8.00
2019-01-12T06:52:29.654Z,6.75
2019-01-12T06:54:56.758Z,10.80
2019-01-12T06:57:23.845Z,7.97
2019-01-12T06:59:51.420Z,7.03
2019-01-12T07:02:20.625Z,10.08
2019-01-12T07:04:47.736Z,5.85
2019-01-12T07:07:14.810Z,11.38
2019-01-12T07:09:43.787Z,11.08
2019-01-12T07:12:11.143Z,4.75
2019-01-12T07:14:40.119Z,11.78
2019-01-12T07:17:07.335Z,3.15
2019-01-12T07:19:34.400Z,6.47
2019-01-12T07:22:01.500Z,3.77
2019-01-12T07:24:28.939Z,10.43
2019-01-12T07:26:56.011Z,9.95
2019-01-12T07:29:23.081Z,4.40
2019-01-12T07:31:50.491Z,5.58
2019-01-12T07:34:19.608Z,9.23
2019-01-12T07:36:48.169Z,5.78
2019-01-12T07:39:16.591Z,5.95
2019-01-12T07:41:44.003Z,3.98
2019-01-12T07:44:12.884Z,5.42
2019-01-12T07:46:41.775Z,5.90
2019-01-12T07:49:09.140Z,5.37
2019-01-12T07:51:36.616Z,8.78
2019-01-12T07:54:06.099Z,3.95
2019-01-12T07:56:33.865Z,4.25
2019-01-12T07:59:01.245Z,6.80
2019-01-12T08:01:28.347Z,3.67
2019-01-12T08:03:56.055Z,4.35
2019-01-12T08:06:23.486Z,12.35
2019-01-12T08:08:50.582Z,4.10
2019-01-12T08:11:19.134Z,5.08
2019-01-12T08:13:46.675Z,9.55
2019-01-12T08:16:14.343Z,7.17
2019-01-12T08:18:41.796Z,3.00
2019-01-12T08:21:10.171Z,2.53
2019-01-12T08:23:37.524Z,8.58
2019-01-12T08:26:05.594Z,5.53
2019-01-12T08:28:32.673Z,8.38
2019-01-12T08:31:00.017Z,6.17
2019-01-12T08:33:27.101Z,5.70
2019-01-12T08:35:55.525Z,5.33
2019-01-12T08:38:22.641Z,2.30
2019-01-12T08:40:50.335Z,8.50
2019-01-12T08:43:18.857Z,5.97
2019-01-12T08:45:46.683Z,3.10
2019-01-12T08:48:14.144Z,5.93
2019-01-12T08:50:42.312Z,4.27
2019-01-12T08:53:09.670Z,5.70
2019-01-12T08:55:37.909Z,7.15
2019-01-12T08:58:04.976Z,9.33
2019-01-12T09:00:32.065Z,5.43
2019-01-12T09:03:00.563Z,4.03
2019-01-12T09:05:27.685Z,7.13
2019-01-12T09:07:55.947Z,8.27
2019-01-12T09:10:23.146Z,3.60
2019-01-12T09:12:50.714Z,3.33
2019-01-12T09:15:17.813Z,5.23
2019-01-12T09:17:45.567Z,8.10
2019-01-12T09:20:13.239Z,5.80
2019-01-12T09:22:42.279Z,4.03
2019-01-12T09:25:10.582Z,4.00
2019-01-12T09:27:37.656Z,8.27
2019-01-12T09:30:07.680Z,6.90
2019-01-12T09:32:35.744Z,7.20
2019-01-12T09:35:03.702Z,2.70
2019-01-12T09:37:32.139Z,3.17
2019-01-12T09:39:59.550Z,3.17
2019-01-12T09:42:26.702Z,7.53
2019-01-12T09:44:54.058Z,6.67
2019-01-12T09:47:21.834Z,1.90
2019-01-12T09:49:50.168Z,3.97
2019-01-12T09:52:17.266Z,5.20
2019-01-12T09:54:44.422Z,6.87
2019-01-12T09:57:11.538Z,5.83
2019-01-12T09:59:40.324Z,3.90
2019-01-12T10:02:07.422Z,6.30
2019-01-12T10:04:34.881Z,6.23
2019-01-12T10:07:01.986Z,4.53
2019-01-12T10:09:29.545Z,5.13
2019-01-12T10:11:56.994Z,6.20
2019-01-12T10:14:24.854Z,6.80
2019-01-12T10:16:52.213Z,8.33
2019-01-12T10:19:19.300Z,8.53
2019-01-12T10:21:47.039Z,3.80
2019-01-12T10:24:14.212Z,3.43
2019-01-12T10:26:41.627Z,7.00
2019-01-12T10:29:08.832Z,6.10
2019-01-12T10:31:35.992Z,8.10
2019-01-12T10:34:03.285Z,10.20
2019-01-12T10:36:30.354Z,8.20
2019-01-12T10:38:57.459Z,10.10
2019-01-12T10:41:24.535Z,13.10
2019-01-12T10:43:53.030Z,9.40
2019-01-12T10:46:20.474Z,9.53
2019-01-12T10:48:48.691Z,10.38
2019-01-12T10:51:15.774Z,8.68
2019-01-12T10:53:45.312Z,14.00
2019-01-12T10:56:14.288Z,9.03
2019-01-12T10:58:41.376Z,6.80
2019-01-12T11:01:08.552Z,12.47
2019-01-12T11:03:36.776Z,8.38
2019-01-12T11:06:05.859Z,8.93
2019-01-12T11:08:32.940Z,10.85
2019-01-12T11:11:00.035Z,9.85
2019-01-12T11:13:27.322Z,6.65
2019-01-12T11:15:54.397Z,7.20
2019-01-12T11:18:22.881Z,12.90
2019-01-12T11:20:49.972Z,5.90
2019-01-12T11:23:19.453Z,8.53
2019-01-12T11:25:46.571Z,6.57
2019-01-12T11:28:14.297Z,6.83
2019-01-12T11:30:41.958Z,6.23
2019-01-12T11:33:09.086Z,6.43
2019-01-12T11:35:36.177Z,5.27
2019-01-12T11:38:03.349Z,10.63
2019-01-12T11:40:30.530Z,6.00
2019-01-12T11:42:58.521Z,3.30
2019-01-12T11:45:28.039Z,3.47
2019-01-12T11:47:55.457Z,4.00
2019-01-12T11:50:22.615Z,3.90
2019-01-12T11:52:49.719Z,3.17
2019-01-12T11:55:18.511Z,4.67
2019-01-12T11:57:46.338Z,2.97
2019-01-12T12:00:18.099Z,3.63
2019-01-12T12:02:45.514Z,4.03
2019-01-12T12:05:12.644Z,2.67
2019-01-12T12:07:40.799Z,4.40
2019-01-12T12:10:08.255Z,2.87
2019-01-12T12:12:35.449Z,5.50
2019-01-12T12:15:05.385Z,2.87
2019-01-12T12:17:33.054Z,3.90
2019-01-12T12:20:00.815Z,5.07
2019-01-12T12:22:30.015Z,3.30
2019-01-12T12:24:58.154Z,4.40
2019-01-12T12:27:26.131Z,4.93
2019-01-12T12:29:53.434Z,3.10
2019-01-12T12:32:20.719Z,4.07
2019-01-12T12:34:47.798Z,4.20
2019-01-12T12:37:16.389Z,5.50
2019-01-12T12:39:43.491Z,2.57
2019-01-12T12:42:10.901Z,5.80
2019-01-12T12:44:38.311Z,6.00
2019-01-12T12:47:05.963Z,3.97
2019-01-12T12:49:34.393Z,3.70
2019-01-12T12:52:01.803Z,4.93
2019-01-12T12:54:29.275Z,3.80
2019-01-12T12:56:56.662Z,10.97
2019-01-12T12:59:23.974Z,3.23
2019-01-12T13:01:51.156Z,6.40
2019-01-12T13:04:18.343Z,10.90
2019-01-12T13:06:46.461Z,10.13
2019-01-12T13:09:13.530Z,2.30
2019-01-12T13:11:40.890Z,10.57
2019-01-12T13:14:08.347Z,4.20
2019-01-12T13:16:36.408Z,3.03
2019-01-12T13:19:04.198Z,3.80
2019-01-12T13:21:31.638Z,3.77
2019-01-12T13:23:58.718Z,2.50
2019-01-12T13:26:26.205Z,10.60
2019-01-12T13:28:53.290Z,6.47
2019-01-12T13:31:22.121Z,6.90
2019-01-12T13:33:49.216Z,3.00
2019-01-12T13:36:16.686Z,4.03
2019-01-12T13:38:44.135Z,5.47
2019-01-12T13:41:11.219Z,6.07
2019-01-12T13:43:38.975Z,6.77
2019-01-12T13:46:06.410Z,7.00
2019-01-12T13:48:33.620Z,7.70
2019-01-12T13:51:03.166Z,6.37
2019-01-12T13:53:30.624Z,8.93
2019-01-12T13:55:58.088Z,4.50
2019-01-12T13:58:25.174Z,10.53
2019-01-12T14:00:53.325Z,5.20
2019-01-12T14:03:20.515Z,5.23
2019-01-12T14:05:47.597Z,14.47
2019-01-12T14:08:15.367Z,12.37
2019-01-12T14:10:42.590Z,6.27
2019-01-12T14:13:09.834Z,6.40
2019-01-12T14:15:37.023Z,12.27
2019-01-12T14:18:05.455Z,14.40
2019-01-12T14:20:37.646Z,9.77
2019-01-12T14:23:06.046Z,11.23
2019-01-12T14:25:33.222Z,4.20
2019-01-12T14:28:00.423Z,11.90
2019-01-12T14:30:28.518Z,8.80
2019-01-12T14:32:55.605Z,9.20
2019-01-12T14:35:22.686Z,11.77
2019-01-12T14:37:50.184Z,8.20
2019-01-12T14:40:17.733Z,8.00
2019-01-12T14:42:46.683Z,11.80
2019-01-12T14:45:21.536Z,7.83
2019-01-12T14:47:48.730Z,13.83
2019-01-12T14:50:16.363Z,11.93
2019-01-12T14:52:45.767Z,10.50
2019-01-12T14:55:13.837Z,14.57
2019-01-12T14:57:41.294Z,10.33
2019-01-12T15:00:15.322Z,12.47
2019-01-12T15:02:43.018Z,18.17
2019-01-12T15:05:11.674Z,10.23
2019-01-12T15:07:39.141Z,15.77
2019-01-12T15:10:08.838Z,19.77
2019-01-12T15:12:36.480Z,15.23
2019-01-12T15:15:05.201Z,16.20
2019-01-12T15:17:32.375Z,18.63
2019-01-12T15:19:59.566Z,15.40
2019-01-12T15:22:26.651Z,16.00
2019-01-12T15:24:53.751Z,15.07
2019-01-12T15:27:20.839Z,17.40
2019-01-12T15:29:48.475Z,18.23
2019-01-12T15:32:16.951Z,12.90
2019-01-12T15:34:44.412Z,17.27
2019-01-12T15:37:11.559Z,9.93
2019-01-12T15:39:39.335Z,13.13
2019-01-12T15:42:06.720Z,18.83
2019-01-12T15:44:35.597Z,14.83
2019-01-12T15:47:02.870Z,15.63
2019-01-12T15:49:32.329Z,18.00
2019-01-12T15:52:00.090Z,15.40
2019-01-12T15:54:27.443Z,17.55
2019-01-12T15:56:54.650Z,16.40
2019-01-12T15:59:22.051Z,21.80
2019-01-12T16:01:49.228Z,14.00
2019-01-12T16:04:16.601Z,26.03
2019-01-12T16:06:43.677Z,12.33
2019-01-12T16:09:10.827Z,15.50
2019-01-12T16:11:38.207Z,20.27
2019-01-12T16:14:05.317Z,17.47
2019-01-12T16:16:32.395Z,19.97
2019-01-12T16:19:00.579Z,16.03
2019-01-12T16:21:28.172Z,15.43
2019-01-12T16:23:58.105Z,25.13
2019-01-12T16:26:25.207Z,22.47
2019-01-12T16:28:52.414Z,13.08
2019-01-12T16:31:19.822Z,19.60
2019-01-12T16:33:46.886Z,14.33
2019-01-12T16:36:14.719Z,17.48
2019-01-12T16:38:42.183Z,13.43
2019-01-12T16:41:09.298Z,24.90
2019-01-12T16:43:37.125Z,27.05
2019-01-12T16:46:04.229Z,25.35
2019-01-12T16:48:32.285Z,34.23
2019-01-12T16:50:59.467Z,29.93
2019-01-12T16:53:26.537Z,27.83
2019-01-12T16:55:54.239Z,25.10
2019-01-12T16:58:21.363Z,17.87
2019-01-12T17:00:48.440Z,24.73
2019-01-12T17:03:15.509Z,24.77
2019-01-12T17:05:42.587Z,25.25
2019-01-12T17:08:09.732Z,15.30
2019-01-12T17:10:36.799Z,17.10
2019-01-12T17:13:04.923Z,19.57
2019-01-12T17:15:34.874Z,14.40
2019-01-12T17:18:01.229Z,12.83
2019-01-12T17:20:28.837Z,24.20
2019-01-12T17:22:58.218Z,15.80
2019-01-12T17:25:26.743Z,12.73
2019-01-12T17:27:54.891Z,17.50
2019-01-12T17:30:22.382Z,14.20
2019-01-12T17:32:49.493Z,25.53
2019-01-12T17:35:16.664Z,26.20
2019-01-12T17:37:44.965Z,31.37
2019-01-12T17:40:13.167Z,24.20
2019-01-12T17:42:40.388Z,29.53
2019-01-12T17:45:16.509Z,21.33
2019-01-12T17:47:43.866Z,23.40
2019-01-12T17:50:14.477Z,17.40
2019-01-12T17:52:42.094Z,23.57
2019-01-12T17:55:12.328Z,33.10
2019-01-12T17:57:41.345Z,18.30
2019-01-12T18:00:14.718Z,21.97
2019-01-12T18:02:41.853Z,20.32
2019-01-12T18:05:08.926Z,14.30
2019-01-12T18:07:37.835Z,18.03
2019-01-12T18:10:06.219Z,19.27
2019-01-12T18:12:33.323Z,33.43
2019-01-12T18:15:00.405Z,37.90
2019-01-12T18:17:28.257Z,18.13
2019-01-12T18:19:55.328Z,25.73
2019-01-12T18:22:22.439Z,27.37
2019-01-12T18:24:50.717Z,22.43
2019-01-12T18:27:17.815Z,21.93
2019-01-12T18:29:44.927Z,30.60
2019-01-12T18:32:12.028Z,20.13
2019-01-12T18:34:40.107Z,14.70
2019-01-12T18:37:07.198Z,18.17
2019-01-12T18:39:34.275Z,28.30
2019-01-12T18:42:01.382Z,13.70
2019-01-12T18:44:30.127Z,16.50
2019-01-12T18:46:57.227Z,16.40
2019-01-12T18:49:24.336Z,23.97
2019-01-12T18:51:51.733Z,12.80
2019-01-12T18:54:18.807Z,14.30
2019-01-12T18:56:46.215Z,11.05
2019-01-12T18:59:16.538Z,8.13
2019-01-12T19:01:43.695Z,3.30
2019-01-12T19:04:11.620Z,3.95
2019-01-12T19:06:38.752Z,6.08
2019-01-12T19:09:07.457Z,7.92
2019-01-12T19:11:34.663Z,2.90
2019-01-12T19:14:01.748Z,4.25
2019-01-12T19:16:29.891Z,8.40
2019-01-12T19:18:56.980Z,3.60
2019-01-12T19:21:24.078Z,4.53
2019-01-12T19:23:52.297Z,2.92
2019-01-12T19:26:20.510Z,12.00
2019-01-12T19:28:47.969Z,2.55
2019-01-12T19:31:16.071Z,5.47
2019-01-12T19:33:43.552Z,8.50
2019-01-12T19:36:10.637Z,13.33
2019-01-12T19:38:39.285Z,5.00
2019-01-12T19:41:06.395Z,14.47
2019-01-12T19:43:33.507Z,7.55
2019-01-12T19:46:00.575Z,7.15
2019-01-12T19:48:31.497Z,6.33
2019-01-12T19:50:58.582Z,7.12
2019-01-12T19:53:25.643Z,9.43
2019-01-12T19:55:52.972Z,10.00
2019-01-12T19:58:21.149Z,9.83
2019-01-12T20:00:48.268Z,9.95
2019-01-12T20:03:15.354Z,6.27
2019-01-12T20:05:42.743Z,5.63
2019-01-12T20:08:10.339Z,12.23
2019-01-12T20:10:38.519Z,13.17
2019-01-12T20:13:09.491Z,11.13
2019-01-12T20:15:36.672Z,22.50
2019-01-12T20:18:03.964Z,12.60
2019-01-12T20:20:31.791Z,14.73
2019-01-12T20:22:59.062Z,18.48
2019-01-12T20:25:28.351Z,14.03
2019-01-12T20:27:56.053Z,16.73
2019-01-12T20:30:33.985Z,15.38
2019-01-12T20:33:31.538Z,12.05
2019-01-12T20:36:46.751Z,8.98
2019-01-12T20:39:41.131Z,30.62
2019-01-12T20:42:47.497Z,15.83
2019-01-12T20:45:56.607Z,19.73
2019-01-12T20:48:47.647Z,15.40
2019-01-12T20:52:20.870Z,9.33
2019-01-12T20:55:02.739Z,13.08
2019-01-12T20:58:11.414Z,5.25
2019-01-12T21:01:35.422Z,15.70
2019-01-12T21:04:39.164Z,14.93
2019-01-12T21:07:44.620Z,17.00
2019-01-12T21:10:50.003Z,14.58
2019-01-12T21:13:51.698Z,9.78
2019-01-12T21:16:26.833Z,7.92
2019-01-12T21:18:54.497Z,3.25
2019-01-12T21:21:22.678Z,11.53
2019-01-12T21:23:50.047Z,11.78
2019-01-12T21:26:17.160Z,19.57
2019-01-12T21:28:44.633Z,13.98
2019-01-12T21:31:12.297Z,5.75
2019-01-12T21:33:39.416Z,8.60
2019-01-12T21:36:06.541Z,10.82
2019-01-12T21:38:33.614Z,14.28
2019-01-12T21:41:00.709Z,8.48
2019-01-12T21:43:28.790Z,10.35
2019-01-12T21:45:56.363Z,8.93
2019-01-12T21:48:23.820Z,12.47
2019-01-12T21:50:51.287Z,10.75
2019-01-12T21:53:18.459Z,12.90
2019-01-12T21:55:47.251Z,10.08
2019-01-12T21:58:15.347Z,16.45
2019-01-12T22:00:42.826Z,11.70
2019-01-12T22:03:11.100Z,15.70
2019-01-12T22:05:38.544Z,12.07
2019-01-12T22:08:07.027Z,9.90
2019-01-12T22:10:35.890Z,14.35
2019-01-12T22:13:02.953Z,6.37
2019-01-12T22:15:31.169Z,11.15
2019-01-12T22:18:00.030Z,11.60
2019-01-12T22:20:28.350Z,15.85
2019-01-12T22:22:55.412Z,23.50
2019-01-12T22:25:22.609Z,8.18
2019-01-12T22:27:50.458Z,16.82
2019-01-12T22:30:17.647Z,11.00
2019-01-12T22:32:46.302Z,8.43
2019-01-12T22:35:13.491Z,10.98
2019-01-12T22:37:40.910Z,12.85
2019-01-12T22:40:14.487Z,21.57
2019-01-12T22:42:41.814Z,35.30
2019-01-12T22:45:10.700Z,22.35
2019-01-12T22:47:38.873Z,5.85
2019-01-12T22:50:09.194Z,12.25
2019-01-12T22:52:37.026Z,5.65
2019-01-12T22:55:06.435Z,18.45
2019-01-12T22:57:34.180Z,12.88
2019-01-12T23:00:01.279Z,11.80
2019-01-12T23:02:28.629Z,12.07
2019-01-12T23:04:55.731Z,18.57
2019-01-12T23:07:23.487Z,15.68
2019-01-12T23:09:53.419Z,12.65
2019-01-12T23:12:21.044Z,13.88
2019-01-12T23:14:48.229Z,17.65
2019-01-12T23:17:15.685Z,8.78
2019-01-12T23:19:42.760Z,11.08
2019-01-12T23:22:10.179Z,17.57
2019-01-12T23:24:38.375Z,23.83
2019-01-12T23:27:06.012Z,7.58
2019-01-12T23:29:33.369Z,8.35
2019-01-12T23:32:00.461Z,14.70
2019-01-12T23:34:27.524Z,16.70
2019-01-12T23:36:55.035Z,17.50
2019-01-12T23:39:22.422Z,16.82
2019-01-12T23:41:49.832Z,15.80
2019-01-12T23:44:17.586Z,15.72
2019-01-12T23:46:46.066Z,19.70
2019-01-12T23:49:13.293Z,20.12
2019-01-12T23:51:41.758Z,20.60
2019-01-12T23:54:08.871Z,17.87
2019-01-12T23:56:36.082Z,10.70
2019-01-12T23:59:03.563Z,24.97
